sensor_id;sensor_type;location;lat;lon;timestamp;pressure;altitude;pressure_sealevel;temperature;humidity
53041;BME280;39326;42.650;23.248;2024-02-21T00:02:03;93131.06;;;3.89;77.76
53041;BME280;39326;42.650;23.248;2024-02-21T00:04:29;93121.63;;;3.55;79.51
53041;BME280;39326;42.650;23.248;2024-02-21T00:06:54;93133.44;;;3.70;79.28
53041;BME280;39326;42.650;23.248;2024-02-21T00:09:20;93130.06;;;3.82;79.10
53041;BME280;39326;42.650;23.248;2024-02-21T00:11:45;93126.13;;;3.88;78.93
53041;BME280;39326;42.650;23.248;2024-02-21T00:14:11;93128.00;;;3.87;78.69
53041;BME280;39326;42.650;23.248;2024-02-21T00:16:36;93118.28;;;3.79;78.58
53041;BME280;39326;42.650;23.248;2024-02-21T00:19:02;93126.97;;;3.80;79.12
53041;BME280;39326;42.650;23.248;2024-02-21T00:21:27;93122.91;;;3.82;78.38
53041;BME280;39326;42.650;23.248;2024-02-21T00:23:52;93110.47;;;3.71;78.88
53041;BME280;39326;42.650;23.248;2024-02-21T00:26:18;93116.63;;;3.75;79.03
53041;BME280;39326;42.650;23.248;2024-02-21T00:28:43;93109.91;;;3.77;78.89
53041;BME280;39326;42.650;23.248;2024-02-21T00:31:08;93116.41;;;3.68;79.15
53041;BME280;39326;42.650;23.248;2024-02-21T00:33:34;93116.91;;;3.61;80.18
53041;BME280;39326;42.650;23.248;2024-02-21T00:35:59;93118.56;;;3.66;79.57
53041;BME280;39326;42.650;23.248;2024-02-21T00:38:25;93113.28;;;3.66;79.76
53041;BME280;39326;42.650;23.248;2024-02-21T00:40:50;93113.25;;;3.53;80.40
53041;BME280;39326;42.650;23.248;2024-02-21T00:43:15;93115.16;;;3.65;80.32
53041;BME280;39326;42.650;23.248;2024-02-21T00:45:41;93113.34;;;3.78;79.51
53041;BME280;39326;42.650;23.248;2024-02-21T00:48:07;93110.94;;;3.85;79.20
53041;BME280;39326;42.650;23.248;2024-02-21T00:50:32;93101.47;;;3.84;79.11
53041;BME280;39326;42.650;23.248;2024-02-21T00:52:58;93103.16;;;3.88;79.22
53041;BME280;39326;42.650;23.248;2024-02-21T00:55:23;93103.25;;;3.80;79.12
53041;BME280;39326;42.650;23.248;2024-02-21T00:57:48;93107.44;;;3.93;78.28
53041;BME280;39326;42.650;23.248;2024-02-21T01:00:14;93102.72;;;3.86;78.84
53041;BME280;39326;42.650;23.248;2024-02-21T01:02:40;93096.72;;;3.77;79.15
53041;BME280;39326;42.650;23.248;2024-02-21T01:05:05;93093.22;;;3.85;78.76
53041;BME280;39326;42.650;23.248;2024-02-21T01:07:31;93094.03;;;3.86;78.57
53041;BME280;39326;42.650;23.248;2024-02-21T01:09:56;93094.13;;;3.89;78.12
53041;BME280;39326;42.650;23.248;2024-02-21T01:12:22;93082.81;;;3.89;78.64
53041;BME280;39326;42.650;23.248;2024-02-21T01:14:47;93087.75;;;3.91;78.55
53041;BME280;39326;42.650;23.248;2024-02-21T01:17:14;93087.66;;;3.87;78.02
53041;BME280;39326;42.650;23.248;2024-02-21T01:19:40;93093.84;;;3.70;78.85
53041;BME280;39326;42.650;23.248;2024-02-21T01:22:05;93083.44;;;3.74;77.96
53041;BME280;39326;42.650;23.248;2024-02-21T01:24:31;93089.28;;;3.46;79.80
53041;BME280;39326;42.650;23.248;2024-02-21T01:26:56;93085.88;;;3.46;79.52
53041;BME280;39326;42.650;23.248;2024-02-21T01:29:21;93089.38;;;3.38;80.21
53041;BME280;39326;42.650;23.248;2024-02-21T01:31:47;93082.59;;;3.28;80.59
53041;BME280;39326;42.650;23.248;2024-02-21T01:34:13;93083.19;;;3.33;80.27
53041;BME280;39326;42.650;23.248;2024-02-21T01:36:38;93085.75;;;3.42;79.75
53041;BME280;39326;42.650;23.248;2024-02-21T01:39:04;93073.47;;;3.46;79.63
53041;BME280;39326;42.650;23.248;2024-02-21T01:41:30;93070.72;;;3.43;80.44
53041;BME280;39326;42.650;23.248;2024-02-21T01:43:56;93076.75;;;3.43;80.35
53041;BME280;39326;42.650;23.248;2024-02-21T01:46:22;93067.97;;;3.51;79.26
53041;BME280;39326;42.650;23.248;2024-02-21T01:48:48;93070.22;;;3.61;79.37
53041;BME280;39326;42.650;23.248;2024-02-21T01:51:14;93067.81;;;3.69;78.50
53041;BME280;39326;42.650;23.248;2024-02-21T01:53:43;93067.50;;;3.82;77.38
53041;BME280;39326;42.650;23.248;2024-02-21T01:56:10;93063.44;;;3.85;76.95
53041;BME280;39326;42.650;23.248;2024-02-21T01:58:36;93064.22;;;3.73;77.39
53041;BME280;39326;42.650;23.248;2024-02-21T02:01:03;93064.53;;;3.84;76.76
53041;BME280;39326;42.650;23.248;2024-02-21T02:03:28;93069.25;;;3.78;76.89
53041;BME280;39326;42.650;23.248;2024-02-21T02:05:55;93066.63;;;3.78;77.08
53041;BME280;39326;42.650;23.248;2024-02-21T02:08:21;93074.53;;;3.78;77.22
53041;BME280;39326;42.650;23.248;2024-02-21T02:10:49;93073.34;;;3.76;77.84
53041;BME280;39326;42.650;23.248;2024-02-21T02:13:15;93061.28;;;3.87;76.91
53041;BME280;39326;42.650;23.248;2024-02-21T02:15:42;93054.78;;;3.97;76.06
53041;BME280;39326;42.650;23.248;2024-02-21T02:18:08;93060.81;;;3.85;77.00
53041;BME280;39326;42.650;23.248;2024-02-21T02:20:33;93054.88;;;3.76;77.49
53041;BME280;39326;42.650;23.248;2024-02-21T02:23:07;93055.66;;;3.88;76.44
53041;BME280;39326;42.650;23.248;2024-02-21T02:25:33;93056.22;;;3.94;75.96
53041;BME280;39326;42.650;23.248;2024-02-21T02:27:59;93048.84;;;3.87;76.33
53041;BME280;39326;42.650;23.248;2024-02-21T02:30:24;93053.00;;;3.76;76.64
53041;BME280;39326;42.650;23.248;2024-02-21T02:32:50;93042.97;;;3.70;77.17
53041;BME280;39326;42.650;23.248;2024-02-21T02:35:15;93044.97;;;3.73;76.62
53041;BME280;39326;42.650;23.248;2024-02-21T02:37:47;93042.34;;;3.85;75.80
53041;BME280;39326;42.650;23.248;2024-02-21T02:40:13;93037.31;;;3.80;75.56
53041;BME280;39326;42.650;23.248;2024-02-21T02:42:38;93033.34;;;3.74;75.67
53041;BME280;39326;42.650;23.248;2024-02-21T02:45:04;93038.91;;;3.72;76.11
53041;BME280;39326;42.650;23.248;2024-02-21T02:47:30;93032.88;;;3.72;75.83
53041;BME280;39326;42.650;23.248;2024-02-21T02:49:55;93042.31;;;3.73;76.16
53041;BME280;39326;42.650;23.248;2024-02-21T02:52:20;93037.25;;;3.55;76.62
53041;BME280;39326;42.650;23.248;2024-02-21T02:54:46;93047.16;;;3.71;75.90
53041;BME280;39326;42.650;23.248;2024-02-21T02:57:17;93046.75;;;3.48;77.78
53041;BME280;39326;42.650;23.248;2024-02-21T02:59:42;93050.09;;;3.57;77.36
53041;BME280;39326;42.650;23.248;2024-02-21T03:02:12;93047.69;;;3.64;77.42
53041;BME280;39326;42.650;23.248;2024-02-21T03:04:39;93043.38;;;3.59;77.35
53041;BME280;39326;42.650;23.248;2024-02-21T03:07:06;93042.97;;;3.57;77.07
53041;BME280;39326;42.650;23.248;2024-02-21T03:09:31;93050.47;;;3.68;77.04
53041;BME280;39326;42.650;23.248;2024-02-21T03:11:57;93042.31;;;3.73;76.25
53041;BME280;39326;42.650;23.248;2024-02-21T03:14:28;93058.16;;;3.85;75.30
53041;BME280;39326;42.650;23.248;2024-02-21T03:16:53;93049.94;;;3.74;76.02
53041;BME280;39326;42.650;23.248;2024-02-21T03:19:19;93059.34;;;3.63;76.51
53041;BME280;39326;42.650;23.248;2024-02-21T03:21:44;93058.25;;;3.64;76.77
53041;BME280;39326;42.650;23.248;2024-02-21T03:24:09;93060.69;;;3.69;77.08
53041;BME280;39326;42.650;23.248;2024-02-21T03:26:35;93060.88;;;3.64;76.81
53041;BME280;39326;42.650;23.248;2024-02-21T03:29:00;93061.63;;;3.52;77.49
53041;BME280;39326;42.650;23.248;2024-02-21T03:31:26;93058.66;;;3.54;77.18
53041;BME280;39326;42.650;23.248;2024-02-21T03:33:51;93060.75;;;3.60;77.16
53041;BME280;39326;42.650;23.248;2024-02-21T03:36:17;93065.47;;;3.55;77.18
53041;BME280;39326;42.650;23.248;2024-02-21T03:38:42;93066.25;;;3.55;76.72
53041;BME280;39326;42.650;23.248;2024-02-21T03:41:07;93066.03;;;3.60;76.63
53041;BME280;39326;42.650;23.248;2024-02-21T03:43:33;93062.72;;;3.51;77.01
53041;BME280;39326;42.650;23.248;2024-02-21T03:45:58;93074.50;;;3.66;76.42
53041;BME280;39326;42.650;23.248;2024-02-21T03:48:24;93072.91;;;3.74;75.65
53041;BME280;39326;42.650;23.248;2024-02-21T03:50:49;93076.38;;;3.66;76.29
53041;BME280;39326;42.650;23.248;2024-02-21T03:53:15;93080.69;;;3.70;75.89
53041;BME280;39326;42.650;23.248;2024-02-21T03:55:40;93078.16;;;3.74;75.99
53041;BME280;39326;42.650;23.248;2024-02-21T03:58:05;93077.16;;;3.78;75.26
53041;BME280;39326;42.650;23.248;2024-02-21T04:00:31;93071.22;;;3.69;76.03
53041;BME280;39326;42.650;23.248;2024-02-21T04:02:56;93074.28;;;3.71;75.87
53041;BME280;39326;42.650;23.248;2024-02-21T04:05:22;93067.03;;;3.56;76.69
53041;BME280;39326;42.650;23.248;2024-02-21T04:07:47;93072.88;;;3.61;76.24
53041;BME280;39326;42.650;23.248;2024-02-21T04:10:13;93068.69;;;3.73;74.82
53041;BME280;39326;42.650;23.248;2024-02-21T04:12:38;93073.09;;;3.69;75.14
53041;BME280;39326;42.650;23.248;2024-02-21T04:15:04;93069.16;;;3.75;74.51
53041;BME280;39326;42.650;23.248;2024-02-21T04:17:29;93068.69;;;3.73;74.51
53041;BME280;39326;42.650;23.248;2024-02-21T04:20:03;93062.88;;;3.67;75.46
53041;BME280;39326;42.650;23.248;2024-02-21T04:22:34;93065.28;;;3.72;75.25
53041;BME280;39326;42.650;23.248;2024-02-21T04:25:00;93073.97;;;3.73;74.99
53041;BME280;39326;42.650;23.248;2024-02-21T04:27:26;93069.47;;;3.61;75.45
53041;BME280;39326;42.650;23.248;2024-02-21T04:29:52;93068.66;;;3.48;75.05
53041;BME280;39326;42.650;23.248;2024-02-21T04:32:17;93073.94;;;3.60;74.94
53041;BME280;39326;42.650;23.248;2024-02-21T04:34:42;93067.81;;;3.69;74.45
53041;BME280;39326;42.650;23.248;2024-02-21T04:37:08;93068.25;;;3.71;74.01
53041;BME280;39326;42.650;23.248;2024-02-21T04:39:33;93074.41;;;3.63;73.25
53041;BME280;39326;42.650;23.248;2024-02-21T04:41:58;93074.22;;;3.47;74.19
53041;BME280;39326;42.650;23.248;2024-02-21T04:44:24;93070.38;;;3.44;74.35
53041;BME280;39326;42.650;23.248;2024-02-21T04:46:49;93069.63;;;3.44;74.04
53041;BME280;39326;42.650;23.248;2024-02-21T04:49:15;93082.03;;;3.43;73.76
53041;BME280;39326;42.650;23.248;2024-02-21T04:51:43;93074.66;;;3.16;75.85
53041;BME280;39326;42.650;23.248;2024-02-21T04:54:08;93084.13;;;3.17;75.31
53041;BME280;39326;42.650;23.248;2024-02-21T04:56:34;93067.97;;;3.18;74.58
53041;BME280;39326;42.650;23.248;2024-02-21T04:59:00;93070.66;;;3.30;74.25
53041;BME280;39326;42.650;23.248;2024-02-21T05:01:25;93077.16;;;3.12;74.72
53041;BME280;39326;42.650;23.248;2024-02-21T05:03:50;93079.31;;;2.98;75.15
53041;BME280;39326;42.650;23.248;2024-02-21T05:06:16;93076.78;;;3.01;75.46
53041;BME280;39326;42.650;23.248;2024-02-21T05:08:42;93072.78;;;3.16;73.84
53041;BME280;39326;42.650;23.248;2024-02-21T05:11:07;93077.63;;;3.14;74.71
53041;BME280;39326;42.650;23.248;2024-02-21T05:13:33;93087.50;;;2.96;75.72
53041;BME280;39326;42.650;23.248;2024-02-21T05:15:58;93085.94;;;3.04;75.23
53041;BME280;39326;42.650;23.248;2024-02-21T05:18:27;93095.44;;;3.17;74.65
53041;BME280;39326;42.650;23.248;2024-02-21T05:20:52;93087.97;;;3.19;74.20
53041;BME280;39326;42.650;23.248;2024-02-21T05:23:18;93093.47;;;3.26;74.89
53041;BME280;39326;42.650;23.248;2024-02-21T05:25:43;93090.84;;;3.26;75.08
53041;BME280;39326;42.650;23.248;2024-02-21T05:28:08;93086.47;;;3.30;74.30
53041;BME280;39326;42.650;23.248;2024-02-21T05:30:34;93085.56;;;3.26;75.35
53041;BME280;39326;42.650;23.248;2024-02-21T05:33:04;93085.56;;;3.26;74.87
53041;BME280;39326;42.650;23.248;2024-02-21T05:35:29;93088.13;;;3.35;74.49
53041;BME280;39326;42.650;23.248;2024-02-21T05:37:54;93088.25;;;3.39;74.72
53041;BME280;39326;42.650;23.248;2024-02-21T05:40:20;93093.44;;;3.47;74.70
53041;BME280;39326;42.650;23.248;2024-02-21T05:42:45;93087.56;;;3.29;76.07
53041;BME280;39326;42.650;23.248;2024-02-21T05:45:11;93093.63;;;3.30;75.76
53041;BME280;39326;42.650;23.248;2024-02-21T05:47:36;93091.16;;;3.46;75.33
53041;BME280;39326;42.650;23.248;2024-02-21T05:50:02;93094.09;;;3.44;75.86
53041;BME280;39326;42.650;23.248;2024-02-21T05:52:27;93099.00;;;3.54;75.31
53041;BME280;39326;42.650;23.248;2024-02-21T05:54:53;93100.44;;;3.64;74.91
53041;BME280;39326;42.650;23.248;2024-02-21T05:57:18;93103.81;;;3.52;75.66
53041;BME280;39326;42.650;23.248;2024-02-21T05:59:44;93104.59;;;3.65;74.79
53041;BME280;39326;42.650;23.248;2024-02-21T06:02:09;93111.22;;;3.71;74.77
53041;BME280;39326;42.650;23.248;2024-02-21T06:04:35;93107.28;;;3.77;74.24
53041;BME280;39326;42.650;23.248;2024-02-21T06:07:01;93105.91;;;3.92;73.98
53041;BME280;39326;42.650;23.248;2024-02-21T06:09:27;93107.88;;;3.95;73.54
53041;BME280;39326;42.650;23.248;2024-02-21T06:11:53;93115.06;;;4.07;73.08
53041;BME280;39326;42.650;23.248;2024-02-21T06:14:19;93119.56;;;4.06;73.41
53041;BME280;39326;42.650;23.248;2024-02-21T06:16:44;93124.69;;;4.24;72.08
53041;BME280;39326;42.650;23.248;2024-02-21T06:19:10;93117.19;;;4.26;71.76
53041;BME280;39326;42.650;23.248;2024-02-21T06:21:36;93124.00;;;4.14;72.59
53041;BME280;39326;42.650;23.248;2024-02-21T06:24:02;93129.50;;;4.22;72.69
53041;BME280;39326;42.650;23.248;2024-02-21T06:26:28;93132.28;;;4.25;72.89
53041;BME280;39326;42.650;23.248;2024-02-21T06:28:53;93138.97;;;4.23;73.60
53041;BME280;39326;42.650;23.248;2024-02-21T06:31:18;93130.50;;;4.29;72.33
53041;BME280;39326;42.650;23.248;2024-02-21T06:33:44;93130.28;;;4.34;72.01
53041;BME280;39326;42.650;23.248;2024-02-21T06:36:09;93132.84;;;4.31;72.63
53041;BME280;39326;42.650;23.248;2024-02-21T06:38:35;93142.66;;;4.43;72.64
53041;BME280;39326;42.650;23.248;2024-02-21T06:41:00;93130.09;;;4.39;73.05
53041;BME280;39326;42.650;23.248;2024-02-21T06:43:28;93141.75;;;4.51;72.93
53041;BME280;39326;42.650;23.248;2024-02-21T06:45:53;93137.91;;;4.60;72.60
53041;BME280;39326;42.650;23.248;2024-02-21T06:48:20;93144.41;;;4.63;72.40
53041;BME280;39326;42.650;23.248;2024-02-21T06:50:46;93147.25;;;4.58;72.95
53041;BME280;39326;42.650;23.248;2024-02-21T06:53:11;93149.78;;;4.66;72.27
53041;BME280;39326;42.650;23.248;2024-02-21T06:55:37;93155.06;;;4.66;71.98
53041;BME280;39326;42.650;23.248;2024-02-21T06:58:02;93153.19;;;4.67;72.17
53041;BME280;39326;42.650;23.248;2024-02-21T07:00:29;93156.84;;;4.87;71.10
53041;BME280;39326;42.650;23.248;2024-02-21T07:02:54;93152.22;;;4.84;71.10
53041;BME280;39326;42.650;23.248;2024-02-21T07:05:19;93152.97;;;4.72;71.64
53041;BME280;39326;42.650;23.248;2024-02-21T07:07:45;93150.47;;;4.63;72.22
53041;BME280;39326;42.650;23.248;2024-02-21T07:10:10;93153.88;;;4.76;72.19
53041;BME280;39326;42.650;23.248;2024-02-21T07:12:36;93157.63;;;4.87;71.27
53041;BME280;39326;42.650;23.248;2024-02-21T07:15:04;93151.00;;;4.69;72.29
53041;BME280;39326;42.650;23.248;2024-02-21T07:17:30;93153.31;;;4.71;72.14
53041;BME280;39326;42.650;23.248;2024-02-21T07:19:56;93158.06;;;4.77;72.31
53041;BME280;39326;42.650;23.248;2024-02-21T07:22:24;93162.13;;;4.75;72.59
53041;BME280;39326;42.650;23.248;2024-02-21T07:24:50;93156.94;;;4.78;71.98
53041;BME280;39326;42.650;23.248;2024-02-21T07:27:16;93161.44;;;5.02;71.08
53041;BME280;39326;42.650;23.248;2024-02-21T07:29:41;93161.25;;;4.95;71.32
53041;BME280;39326;42.650;23.248;2024-02-21T07:32:07;93163.13;;;4.94;71.65
53041;BME280;39326;42.650;23.248;2024-02-21T07:34:33;93165.06;;;5.10;71.49
53041;BME280;39326;42.650;23.248;2024-02-21T07:36:58;93161.13;;;5.04;71.12
53041;BME280;39326;42.650;23.248;2024-02-21T07:39:23;93154.06;;;5.20;71.11
53041;BME280;39326;42.650;23.248;2024-02-21T07:41:49;93159.88;;;5.26;70.80
53041;BME280;39326;42.650;23.248;2024-02-21T07:44:15;93163.31;;;5.02;71.15
53041;BME280;39326;42.650;23.248;2024-02-21T07:46:41;93165.72;;;5.19;70.38
53041;BME280;39326;42.650;23.248;2024-02-21T07:49:06;93165.25;;;5.29;70.57
53041;BME280;39326;42.650;23.248;2024-02-21T07:51:31;93162.16;;;5.39;70.25
53041;BME280;39326;42.650;23.248;2024-02-21T07:53:57;93152.56;;;5.35;70.40
53041;BME280;39326;42.650;23.248;2024-02-21T07:56:22;93157.22;;;5.38;70.36
53041;BME280;39326;42.650;23.248;2024-02-21T07:58:48;93158.31;;;5.37;69.49
53041;BME280;39326;42.650;23.248;2024-02-21T08:01:21;93162.53;;;5.26;70.26
53041;BME280;39326;42.650;23.248;2024-02-21T08:03:47;93155.44;;;5.30;70.96
53041;BME280;39326;42.650;23.248;2024-02-21T08:06:13;93151.56;;;5.52;70.21
53041;BME280;39326;42.650;23.248;2024-02-21T08:08:39;93163.66;;;5.53;69.95
53041;BME280;39326;42.650;23.248;2024-02-21T08:11:04;93154.34;;;5.71;69.85
53041;BME280;39326;42.650;23.248;2024-02-21T08:13:30;93155.03;;;5.96;69.75
53041;BME280;39326;42.650;23.248;2024-02-21T08:15:55;93152.13;;;6.01;68.35
53041;BME280;39326;42.650;23.248;2024-02-21T08:18:22;93150.28;;;6.17;69.00
53041;BME280;39326;42.650;23.248;2024-02-21T08:20:47;93146.53;;;6.34;67.03
53041;BME280;39326;42.650;23.248;2024-02-21T08:23:15;93149.28;;;6.53;66.01
53041;BME280;39326;42.650;23.248;2024-02-21T08:25:41;93133.66;;;6.32;65.00
53041;BME280;39326;42.650;23.248;2024-02-21T08:28:07;93146.56;;;6.50;64.54
53041;BME280;39326;42.650;23.248;2024-02-21T08:30:33;93142.44;;;6.52;64.21
53041;BME280;39326;42.650;23.248;2024-02-21T08:32:59;93146.19;;;6.36;64.43
53041;BME280;39326;42.650;23.248;2024-02-21T08:35:24;93146.56;;;6.50;64.38
53041;BME280;39326;42.650;23.248;2024-02-21T08:37:50;93150.06;;;6.38;63.28
53041;BME280;39326;42.650;23.248;2024-02-21T08:40:15;93150.56;;;6.44;63.73
53041;BME280;39326;42.650;23.248;2024-02-21T08:42:46;93148.88;;;6.51;63.79
53041;BME280;39326;42.650;23.248;2024-02-21T08:45:11;93150.50;;;6.88;62.83
53041;BME280;39326;42.650;23.248;2024-02-21T08:47:39;93153.66;;;6.93;62.06
53041;BME280;39326;42.650;23.248;2024-02-21T08:50:05;93156.69;;;6.76;61.93
53041;BME280;39326;42.650;23.248;2024-02-21T08:52:31;93147.44;;;6.70;62.21
53041;BME280;39326;42.650;23.248;2024-02-21T08:54:56;93161.78;;;6.84;62.50
53041;BME280;39326;42.650;23.248;2024-02-21T08:57:22;93155.41;;;6.70;61.81
53041;BME280;39326;42.650;23.248;2024-02-21T08:59:47;93157.59;;;6.52;61.89
53041;BME280;39326;42.650;23.248;2024-02-21T09:02:13;93159.84;;;6.66;62.40
53041;BME280;39326;42.650;23.248;2024-02-21T09:04:41;93155.22;;;6.78;62.23
53041;BME280;39326;42.650;23.248;2024-02-21T09:07:06;93163.41;;;6.73;61.93
53041;BME280;39326;42.650;23.248;2024-02-21T09:09:32;93158.81;;;6.70;62.52
53041;BME280;39326;42.650;23.248;2024-02-21T09:11:58;93161.53;;;6.90;62.41
53041;BME280;39326;42.650;23.248;2024-02-21T09:14:30;93164.28;;;7.28;61.04
53041;BME280;39326;42.650;23.248;2024-02-21T09:16:56;93153.78;;;7.51;59.18
53041;BME280;39326;42.650;23.248;2024-02-21T09:19:21;93160.91;;;7.47;59.55
53041;BME280;39326;42.650;23.248;2024-02-21T09:21:47;93164.56;;;7.58;59.57
53041;BME280;39326;42.650;23.248;2024-02-21T09:24:13;93167.31;;;7.46;59.42
53041;BME280;39326;42.650;23.248;2024-02-21T09:26:38;93163.25;;;7.33;59.04
53041;BME280;39326;42.650;23.248;2024-02-21T09:29:04;93154.31;;;7.41;60.04
53041;BME280;39326;42.650;23.248;2024-02-21T09:31:29;93158.81;;;7.56;59.00
53041;BME280;39326;42.650;23.248;2024-02-21T09:33:55;93158.66;;;7.49;59.09
53041;BME280;39326;42.650;23.248;2024-02-21T09:36:20;93163.63;;;7.51;58.74
53041;BME280;39326;42.650;23.248;2024-02-21T09:38:46;93165.84;;;7.49;58.77
53041;BME280;39326;42.650;23.248;2024-02-21T09:43:44;93158.88;;;7.99;57.74
53041;BME280;39326;42.650;23.248;2024-02-21T09:46:17;93154.28;;;7.96;57.51
53041;BME280;39326;42.650;23.248;2024-02-21T09:51:32;93158.94;;;8.64;55.83
53041;BME280;39326;42.650;23.248;2024-02-21T09:53:59;93161.00;;;8.74;54.58
53041;BME280;39326;42.650;23.248;2024-02-21T09:56:25;93164.78;;;8.50;54.03
53041;BME280;39326;42.650;23.248;2024-02-21T09:58:51;93162.88;;;8.51;54.82
53041;BME280;39326;42.650;23.248;2024-02-21T10:01:16;93158.72;;;8.11;54.71
53041;BME280;39326;42.650;23.248;2024-02-21T10:03:42;93166.66;;;8.07;55.54
53041;BME280;39326;42.650;23.248;2024-02-21T10:06:09;93162.13;;;7.88;54.58
53041;BME280;39326;42.650;23.248;2024-02-21T10:08:34;93161.91;;;7.97;55.31
53041;BME280;39326;42.650;23.248;2024-02-21T10:11:00;93154.28;;;7.96;54.67
53041;BME280;39326;42.650;23.248;2024-02-21T10:13:28;93154.00;;;8.01;55.62
53041;BME280;39326;42.650;23.248;2024-02-21T10:16:06;93155.53;;;8.02;55.40
53041;BME280;39326;42.650;23.248;2024-02-21T10:18:33;93148.13;;;7.91;56.02
53041;BME280;39326;42.650;23.248;2024-02-21T10:21:05;93147.97;;;8.04;55.01
53041;BME280;39326;42.650;23.248;2024-02-21T10:23:42;93148.50;;;7.90;55.27
53041;BME280;39326;42.650;23.248;2024-02-21T10:26:09;93142.22;;;8.21;54.32
53041;BME280;39326;42.650;23.248;2024-02-21T10:28:34;93136.63;;;8.26;54.00
53041;BME280;39326;42.650;23.248;2024-02-21T10:31:00;93125.66;;;8.51;53.75
53041;BME280;39326;42.650;23.248;2024-02-21T10:33:25;93122.75;;;8.36;53.30
53041;BME280;39326;42.650;23.248;2024-02-21T10:35:53;93117.06;;;8.38;53.56
53041;BME280;39326;42.650;23.248;2024-02-21T10:38:18;93112.41;;;8.31;53.58
53041;BME280;39326;42.650;23.248;2024-02-21T10:40:46;93103.84;;;8.18;53.90
53041;BME280;39326;42.650;23.248;2024-02-21T10:43:13;93093.72;;;8.70;54.33
53041;BME280;39326;42.650;23.248;2024-02-21T10:45:41;93093.69;;;9.23;52.73
53041;BME280;39326;42.650;23.248;2024-02-21T10:48:13;93091.88;;;9.27;50.91
53041;BME280;39326;42.650;23.248;2024-02-21T10:51:19;93088.38;;;9.53;49.83
53041;BME280;39326;42.650;23.248;2024-02-21T10:54:24;93082.44;;;9.67;48.34
53041;BME280;39326;42.650;23.248;2024-02-21T10:56:56;93072.56;;;10.01;49.12
53041;BME280;39326;42.650;23.248;2024-02-21T10:59:23;93080.38;;;9.87;48.93
53041;BME280;39326;42.650;23.248;2024-02-21T11:01:51;93076.16;;;9.82;49.40
53041;BME280;39326;42.650;23.248;2024-02-21T11:04:17;93073.13;;;9.50;48.74
53041;BME280;39326;42.650;23.248;2024-02-21T11:06:44;93065.34;;;9.34;49.87
53041;BME280;39326;42.650;23.248;2024-02-21T11:09:10;93073.09;;;9.46;50.19
53041;BME280;39326;42.650;23.248;2024-02-21T11:11:38;93061.22;;;9.74;50.05
53041;BME280;39326;42.650;23.248;2024-02-21T11:14:11;93057.66;;;9.96;49.28
53041;BME280;39326;42.650;23.248;2024-02-21T11:16:42;93064.19;;;9.65;49.36
53041;BME280;39326;42.650;23.248;2024-02-21T11:19:09;93068.69;;;9.31;48.14
53041;BME280;39326;42.650;23.248;2024-02-21T11:21:37;93076.06;;;8.85;47.26
53041;BME280;39326;42.650;23.248;2024-02-21T11:24:03;93060.22;;;8.65;47.88
53041;BME280;39326;42.650;23.248;2024-02-21T11:26:30;93064.22;;;8.56;48.61
53041;BME280;39326;42.650;23.248;2024-02-21T11:29:02;93066.88;;;8.56;49.41
53041;BME280;39326;42.650;23.248;2024-02-21T11:31:42;93063.00;;;8.50;49.73
53041;BME280;39326;42.650;23.248;2024-02-21T11:34:09;93056.97;;;8.53;49.86
53041;BME280;39326;42.650;23.248;2024-02-21T11:36:35;93059.56;;;8.72;50.43
53041;BME280;39326;42.650;23.248;2024-02-21T11:39:04;93049.81;;;8.57;50.29
53041;BME280;39326;42.650;23.248;2024-02-21T11:41:31;93052.72;;;8.48;50.35
53041;BME280;39326;42.650;23.248;2024-02-21T11:43:56;93053.41;;;8.68;50.24
53041;BME280;39326;42.650;23.248;2024-02-21T11:46:22;93049.63;;;8.69;50.70
53041;BME280;39326;42.650;23.248;2024-02-21T11:48:49;93047.63;;;8.62;50.56
53041;BME280;39326;42.650;23.248;2024-02-21T11:51:24;93039.53;;;8.55;50.35
53041;BME280;39326;42.650;23.248;2024-02-21T11:53:52;93034.22;;;8.55;51.03
53041;BME280;39326;42.650;23.248;2024-02-21T11:56:18;93034.50;;;8.46;51.49
53041;BME280;39326;42.650;23.248;2024-02-21T11:58:46;93041.50;;;8.12;51.08
53041;BME280;39326;42.650;23.248;2024-02-21T12:01:11;93037.66;;;8.10;51.17
53041;BME280;39326;42.650;23.248;2024-02-21T12:03:37;93032.66;;;7.82;52.02
53041;BME280;39326;42.650;23.248;2024-02-21T12:06:02;93032.56;;;7.78;51.06
53041;BME280;39326;42.650;23.248;2024-02-21T12:08:40;93029.03;;;7.71;51.69
53041;BME280;39326;42.650;23.248;2024-02-21T12:11:19;93030.16;;;7.70;52.34
53041;BME280;39326;42.650;23.248;2024-02-21T12:13:45;93023.88;;;7.58;52.88
53041;BME280;39326;42.650;23.248;2024-02-21T12:16:10;93024.00;;;7.65;52.89
53041;BME280;39326;42.650;23.248;2024-02-21T12:18:36;93024.09;;;7.69;52.94
53041;BME280;39326;42.650;23.248;2024-02-21T12:21:01;93019.47;;;7.66;53.29
53041;BME280;39326;42.650;23.248;2024-02-21T12:23:27;93019.41;;;7.43;54.79
53041;BME280;39326;42.650;23.248;2024-02-21T12:25:52;93022.78;;;7.40;54.02
53041;BME280;39326;42.650;23.248;2024-02-21T12:28:21;93016.44;;;7.45;54.29
53041;BME280;39326;42.650;23.248;2024-02-21T12:30:47;93016.00;;;7.43;55.50
53041;BME280;39326;42.650;23.248;2024-02-21T12:33:12;93017.75;;;7.35;55.56
53041;BME280;39326;42.650;23.248;2024-02-21T12:35:39;93016.47;;;7.48;55.38
53041;BME280;39326;42.650;23.248;2024-02-21T12:38:05;93014.44;;;7.61;54.97
53041;BME280;39326;42.650;23.248;2024-02-21T12:40:30;93014.22;;;7.70;54.83
53041;BME280;39326;42.650;23.248;2024-02-21T12:43:00;93002.16;;;7.53;54.86
53041;BME280;39326;42.650;23.248;2024-02-21T12:45:29;93010.81;;;7.50;55.04
53041;BME280;39326;42.650;23.248;2024-02-21T12:47:55;93008.00;;;7.62;54.56
53041;BME280;39326;42.650;23.248;2024-02-21T12:50:20;93012.25;;;7.66;54.39
53041;BME280;39326;42.650;23.248;2024-02-21T12:52:48;93003.25;;;7.71;53.52
53041;BME280;39326;42.650;23.248;2024-02-21T12:55:14;93002.50;;;7.71;53.33
53041;BME280;39326;42.650;23.248;2024-02-21T12:57:41;93003.09;;;7.83;52.37
53041;BME280;39326;42.650;23.248;2024-02-21T13:00:07;92987.84;;;7.80;52.11
53041;BME280;39326;42.650;23.248;2024-02-21T13:02:34;92996.59;;;8.04;52.69